AKJ1505 VAAH-VAPO
Flight info
| Callsign | AKJ1505 |
|---|---|
| Flight time | 0h 58m |
| Altitude | 33000 |
| Route | QQZ1A QQZ W77 SG J69 SRD J40 PPN |
| Aircraft | B38M/M-SDE1FGHILORVWXY/HB1 |
Departure
| Time | 2026-05-07 10:08 |
|---|---|
| Airport | Sardar Vallabh Patel International Airport (VAAH) |
Arrival
| Time | 2026-05-07 11:06 |
|---|---|
| Airport | Pune International Airport (VAPO) |
| Time | Latitude | Longitude | Altitude | Speed | Heading |
|---|---|---|---|---|---|
| 2026-05-07 09:35 | 23.07157 | 72.61875 | 198 ft | 0 kts | 46° |
| 2026-05-07 09:52 | 23.07156 | 72.61874 | 198 ft | 2 kts | 46° |
| 2026-05-07 09:52 | 23.07140 | 72.61852 | 212 ft | 4 kts | 58° |
| 2026-05-07 09:52 | 23.07129 | 72.61826 | 205 ft | 4 kts | 83° |
| 2026-05-07 09:53 | 23.07134 | 72.61801 | 210 ft | 3 kts | 131° |
| 2026-05-07 09:53 | 23.07139 | 72.61795 | 207 ft | 0 kts | 135° |
| 2026-05-07 09:57 | 23.07134 | 72.61801 | 210 ft | 2 kts | 135° |
| 2026-05-07 09:57 | 23.07115 | 72.61822 | 207 ft | 5 kts | 135° |
| 2026-05-07 09:57 | 23.07082 | 72.61858 | 207 ft | 8 kts | 135° |
| 2026-05-07 09:58 | 23.07034 | 72.61910 | 210 ft | 11 kts | 134° |
| 2026-05-07 09:58 | 23.06972 | 72.61980 | 204 ft | 14 kts | 134° |
| 2026-05-07 09:58 | 23.06898 | 72.62063 | 203 ft | 13 kts | 134° |
| 2026-05-07 09:58 | 23.06896 | 72.62106 | 203 ft | 8 kts | 50° |
| 2026-05-07 09:59 | 23.06896 | 72.62167 | 199 ft | 11 kts | 134° |
| 2026-05-07 09:59 | 23.06841 | 72.62235 | 199 ft | 12 kts | 109° |
| 2026-05-07 09:59 | 23.06887 | 72.62303 | 207 ft | 12 kts | 44° |
| 2026-05-07 09:59 | 23.06953 | 72.62375 | 197 ft | 15 kts | 44° |
| 2026-05-07 10:00 | 23.07032 | 72.62460 | 204 ft | 18 kts | 45° |
| 2026-05-07 10:02 | 23.07129 | 72.62565 | 199 ft | 21 kts | 45° |
| 2026-05-07 10:02 | 23.07240 | 72.62683 | 197 ft | 22 kts | 43° |
| 2026-05-07 10:02 | 23.07355 | 72.62803 | 201 ft | 25 kts | 45° |
| 2026-05-07 10:02 | 23.07477 | 72.62934 | 205 ft | 25 kts | 44° |
| 2026-05-07 10:03 | 23.07609 | 72.63072 | 198 ft | 28 kts | 44° |
| 2026-05-07 10:03 | 23.07753 | 72.63222 | 200 ft | 26 kts | 44° |
| 2026-05-07 10:03 | 23.07880 | 72.63360 | 198 ft | 23 kts | 45° |
| 2026-05-07 10:03 | 23.07967 | 72.63494 | 194 ft | 23 kts | 43° |
| 2026-05-07 10:04 | 23.08087 | 72.63621 | 202 ft | 25 kts | 46° |
| 2026-05-07 10:04 | 23.08217 | 72.63761 | 197 ft | 28 kts | 42° |
| 2026-05-07 10:04 | 23.08358 | 72.63912 | 204 ft | 29 kts | 45° |
| 2026-05-07 10:04 | 23.08509 | 72.64074 | 200 ft | 32 kts | 45° |
| 2026-05-07 10:05 | 23.08602 | 72.64203 | 200 ft | 18 kts | 94° |
| 2026-05-07 10:05 | 23.08588 | 72.64237 | 201 ft | 0 kts | 136° |
| 2026-05-07 10:05 | 23.08582 | 72.64243 | 204 ft | 2 kts | 135° |
| 2026-05-07 10:05 | 23.08568 | 72.64258 | 200 ft | 4 kts | 135° |
| 2026-05-07 10:06 | 23.08547 | 72.64281 | 195 ft | 5 kts | 131° |
| 2026-05-07 10:06 | 23.08516 | 72.64293 | 203 ft | 5 kts | 206° |
| 2026-05-07 10:06 | 23.08503 | 72.64281 | 200 ft | 1 kts | 225° |
| 2026-05-07 10:06 | 23.08499 | 72.64276 | 204 ft | 0 kts | 225° |
| 2026-05-07 10:07 | 23.08435 | 72.64208 | 201 ft | 49 kts | 224° |
| 2026-05-07 10:07 | 23.07972 | 72.63712 | 196 ft | 134 kts | 224° |
| 2026-05-07 10:07 | 23.07138 | 72.62837 | 374 ft | 188 kts | 225° |
| 2026-05-07 10:08 | 23.06153 | 72.61771 | 1156 ft | 213 kts | 226° |
| 2026-05-07 10:08 | 23.05080 | 72.60617 | 2303 ft | 216 kts | 226° |
| 2026-05-07 10:08 | 23.03841 | 72.59780 | 3613 ft | 208 kts | 192° |
| 2026-05-07 10:08 | 23.02372 | 72.59915 | 4122 ft | 227 kts | 159° |
| 2026-05-07 10:09 | 23.01147 | 72.61047 | 3695 ft | 239 kts | 126° |
| 2026-05-07 10:09 | 23.00111 | 72.62484 | 3556 ft | 244 kts | 131° |
| 2026-05-07 10:09 | 22.98988 | 72.63885 | 3358 ft | 248 kts | 133° |
| 2026-05-07 10:09 | 22.97814 | 72.65261 | 4060 ft | 245 kts | 134° |
| 2026-05-07 10:10 | 22.96593 | 72.66637 | 4984 ft | 262 kts | 135° |
| 2026-05-07 10:10 | 22.95272 | 72.68087 | 5894 ft | 275 kts | 135° |
| 2026-05-07 10:10 | 22.93928 | 72.69557 | 7053 ft | 277 kts | 136° |
| 2026-05-07 10:10 | 22.92547 | 72.71052 | 8089 ft | 283 kts | 136° |
| 2026-05-07 10:11 | 22.91142 | 72.72565 | 9130 ft | 287 kts | 136° |
| 2026-05-07 10:11 | 22.89715 | 72.74097 | 10104 ft | 292 kts | 136° |
| 2026-05-07 10:11 | 22.88236 | 72.75680 | 10808 ft | 308 kts | 136° |
| 2026-05-07 10:11 | 22.86584 | 72.77259 | 11371 ft | 324 kts | 143° |
| 2026-05-07 10:12 | 22.84764 | 72.78773 | 12089 ft | 335 kts | 143° |
| 2026-05-07 10:12 | 22.82915 | 72.80333 | 12961 ft | 338 kts | 143° |
| 2026-05-07 10:12 | 22.81049 | 72.81922 | 13793 ft | 343 kts | 142° |
| 2026-05-07 10:12 | 22.79163 | 72.83534 | 14585 ft | 347 kts | 142° |
| 2026-05-07 10:13 | 22.77258 | 72.85167 | 15355 ft | 352 kts | 142° |
| 2026-05-07 10:13 | 22.75331 | 72.86820 | 16104 ft | 356 kts | 142° |
| 2026-05-07 10:13 | 22.73406 | 72.88472 | 16815 ft | 359 kts | 142° |
| 2026-05-07 10:13 | 22.71436 | 72.90160 | 17515 ft | 363 kts | 142° |
| 2026-05-07 10:14 | 22.69446 | 72.91867 | 18180 ft | 367 kts | 142° |
| 2026-05-07 10:14 | 22.67432 | 72.93593 | 18817 ft | 371 kts | 142° |
| 2026-05-07 10:14 | 22.65403 | 72.95323 | 19447 ft | 374 kts | 142° |
| 2026-05-07 10:14 | 22.63347 | 72.97073 | 20041 ft | 378 kts | 142° |
| 2026-05-07 10:15 | 22.61276 | 72.98835 | 20647 ft | 381 kts | 142° |
| 2026-05-07 10:15 | 22.59181 | 73.00617 | 21228 ft | 384 kts | 142° |
| 2026-05-07 10:15 | 22.57040 | 73.02437 | 21796 ft | 388 kts | 142° |
| 2026-05-07 10:15 | 22.54939 | 73.04222 | 22343 ft | 391 kts | 142° |
| 2026-05-07 10:16 | 22.52792 | 73.06047 | 22871 ft | 394 kts | 142° |
| 2026-05-07 10:16 | 22.50630 | 73.07883 | 23384 ft | 397 kts | 142° |
| 2026-05-07 10:16 | 22.48446 | 73.09736 | 23885 ft | 400 kts | 142° |
| 2026-05-07 10:16 | 22.46250 | 73.11600 | 24350 ft | 404 kts | 142° |
| 2026-05-07 10:17 | 22.44032 | 73.13481 | 24828 ft | 406 kts | 142° |
| 2026-05-07 10:17 | 22.41802 | 73.15371 | 25288 ft | 409 kts | 142° |
| 2026-05-07 10:17 | 22.39556 | 73.17275 | 25732 ft | 412 kts | 142° |
| 2026-05-07 10:17 | 22.37293 | 73.19192 | 26162 ft | 415 kts | 142° |
| 2026-05-07 10:18 | 22.35015 | 73.21117 | 26587 ft | 417 kts | 143° |
| 2026-05-07 10:18 | 22.32498 | 73.22660 | 26985 ft | 418 kts | 161° |
| 2026-05-07 10:18 | 22.29706 | 73.23557 | 27373 ft | 420 kts | 165° |
| 2026-05-07 10:18 | 22.26887 | 73.24431 | 27721 ft | 423 kts | 165° |
| 2026-05-07 10:19 | 22.24046 | 73.25290 | 28121 ft | 425 kts | 165° |
| 2026-05-07 10:19 | 22.21184 | 73.26140 | 28488 ft | 428 kts | 165° |
| 2026-05-07 10:19 | 22.18304 | 73.26989 | 28857 ft | 430 kts | 165° |
| 2026-05-07 10:19 | 22.15404 | 73.27841 | 29208 ft | 433 kts | 165° |
| 2026-05-07 10:20 | 22.12494 | 73.28695 | 29554 ft | 435 kts | 165° |
| 2026-05-07 10:20 | 22.09565 | 73.29554 | 29887 ft | 437 kts | 165° |
| 2026-05-07 10:20 | 22.06618 | 73.30418 | 30215 ft | 440 kts | 165° |
| 2026-05-07 10:20 | 22.03659 | 73.31284 | 30538 ft | 442 kts | 165° |
| 2026-05-07 10:21 | 22.00683 | 73.32156 | 30852 ft | 444 kts | 165° |
| 2026-05-07 10:21 | 21.97697 | 73.33030 | 31160 ft | 446 kts | 165° |
| 2026-05-07 10:21 | 21.94693 | 73.33909 | 31495 ft | 447 kts | 165° |
| 2026-05-07 10:21 | 21.91694 | 73.34786 | 31908 ft | 446 kts | 165° |
| 2026-05-07 10:22 | 21.88703 | 73.35661 | 32312 ft | 445 kts | 165° |
| 2026-05-07 10:22 | 21.85711 | 73.36535 | 32693 ft | 445 kts | 165° |
| 2026-05-07 10:22 | 21.82764 | 73.37396 | 32972 ft | 446 kts | 165° |
| 2026-05-07 10:23 | 21.76789 | 73.39140 | 33009 ft | 443 kts | 165° |
| 2026-05-07 10:23 | 21.70827 | 73.40879 | 33001 ft | 444 kts | 165° |
| 2026-05-07 10:24 | 21.64862 | 73.42617 | 33000 ft | 444 kts | 165° |
| 2026-05-07 10:24 | 21.59871 | 73.44070 | 33000 ft | 443 kts | 165° |
| 2026-05-07 10:25 | 21.52950 | 73.46084 | 33000 ft | 444 kts | 166° |
| 2026-05-07 10:25 | 21.47959 | 73.47534 | 33002 ft | 444 kts | 165° |
| 2026-05-07 10:26 | 21.41998 | 73.49266 | 33000 ft | 444 kts | 166° |
| 2026-05-07 10:26 | 21.36074 | 73.50985 | 33002 ft | 444 kts | 166° |
| 2026-05-07 10:27 | 21.30115 | 73.52713 | 33000 ft | 443 kts | 166° |
| 2026-05-07 10:27 | 21.24168 | 73.54436 | 32999 ft | 443 kts | 166° |
| 2026-05-07 10:28 | 21.18220 | 73.56158 | 33002 ft | 443 kts | 165° |
| 2026-05-07 10:28 | 21.12358 | 73.58208 | 33005 ft | 444 kts | 162° |
| 2026-05-07 10:29 | 21.06497 | 73.60275 | 33001 ft | 444 kts | 162° |
| 2026-05-07 10:29 | 21.00628 | 73.62331 | 33003 ft | 444 kts | 162° |
| 2026-05-07 10:30 | 20.91825 | 73.65410 | 33001 ft | 444 kts | 162° |
| 2026-05-07 10:30 | 20.85951 | 73.67462 | 33001 ft | 444 kts | 162° |
| 2026-05-07 10:31 | 20.80066 | 73.69517 | 33002 ft | 445 kts | 162° |
| 2026-05-07 10:31 | 20.74178 | 73.71571 | 32999 ft | 445 kts | 162° |
| 2026-05-07 10:32 | 20.68293 | 73.73623 | 32999 ft | 445 kts | 162° |
| 2026-05-07 10:32 | 20.62407 | 73.75673 | 32999 ft | 445 kts | 162° |
| 2026-05-07 10:33 | 20.56513 | 73.77724 | 32998 ft | 447 kts | 162° |
| 2026-05-07 10:33 | 20.50594 | 73.79782 | 33003 ft | 448 kts | 162° |
| 2026-05-07 10:34 | 20.44681 | 73.81837 | 32999 ft | 447 kts | 162° |
| 2026-05-07 10:34 | 20.38762 | 73.83892 | 33000 ft | 447 kts | 162° |
| 2026-05-07 10:35 | 20.32854 | 73.85941 | 32999 ft | 446 kts | 162° |
| 2026-05-07 10:35 | 20.26986 | 73.87975 | 33000 ft | 446 kts | 162° |
| 2026-05-07 10:36 | 20.24080 | 73.88981 | 32887 ft | 433 kts | 162° |
| 2026-05-07 10:36 | 20.21236 | 73.89966 | 32479 ft | 428 kts | 162° |
| 2026-05-07 10:36 | 20.18404 | 73.90947 | 31909 ft | 427 kts | 162° |
| 2026-05-07 10:36 | 20.15581 | 73.91923 | 31383 ft | 426 kts | 162° |
| 2026-05-07 10:37 | 20.12851 | 73.93113 | 30825 ft | 425 kts | 149° |
| 2026-05-07 10:37 | 20.10560 | 73.95075 | 30328 ft | 423 kts | 134° |
| 2026-05-07 10:37 | 20.08503 | 73.97283 | 29939 ft | 418 kts | 136° |
| 2026-05-07 10:37 | 20.06449 | 73.99451 | 29486 ft | 415 kts | 135° |
| 2026-05-07 10:38 | 20.04416 | 74.01617 | 29020 ft | 412 kts | 135° |
| 2026-05-07 10:38 | 20.02399 | 74.03774 | 28559 ft | 410 kts | 135° |
| 2026-05-07 10:38 | 20.00397 | 74.05919 | 28106 ft | 407 kts | 135° |
| 2026-05-07 10:38 | 19.98406 | 74.08052 | 27664 ft | 405 kts | 135° |
| 2026-05-07 10:39 | 19.96431 | 74.10167 | 27214 ft | 402 kts | 135° |
| 2026-05-07 10:39 | 19.94467 | 74.12270 | 26780 ft | 399 kts | 135° |
| 2026-05-07 10:39 | 19.92515 | 74.14358 | 26349 ft | 397 kts | 135° |
| 2026-05-07 10:39 | 19.90591 | 74.16416 | 25925 ft | 387 kts | 135° |
| 2026-05-07 10:40 | 19.88727 | 74.18410 | 25526 ft | 375 kts | 135° |
| 2026-05-07 10:40 | 19.86914 | 74.20348 | 25138 ft | 364 kts | 135° |
| 2026-05-07 10:40 | 19.85151 | 74.22232 | 24771 ft | 354 kts | 135° |
| 2026-05-07 10:40 | 19.83437 | 74.24064 | 24391 ft | 347 kts | 135° |
| 2026-05-07 10:41 | 19.81713 | 74.25904 | 24003 ft | 355 kts | 135° |
| 2026-05-07 10:41 | 19.79961 | 74.27775 | 23624 ft | 359 kts | 135° |
| 2026-05-07 10:41 | 19.78195 | 74.29660 | 23252 ft | 360 kts | 135° |
| 2026-05-07 10:41 | 19.76430 | 74.31543 | 22883 ft | 359 kts | 135° |
| 2026-05-07 10:42 | 19.74675 | 74.33416 | 22510 ft | 357 kts | 135° |
| 2026-05-07 10:42 | 19.72927 | 74.35279 | 22138 ft | 355 kts | 135° |
| 2026-05-07 10:42 | 19.71055 | 74.36961 | 21701 ft | 353 kts | 150° |
| 2026-05-07 10:42 | 19.68793 | 74.37895 | 21336 ft | 347 kts | 171° |
| 2026-05-07 10:43 | 19.66410 | 74.37968 | 21022 ft | 341 kts | 189° |
| 2026-05-07 10:43 | 19.64141 | 74.37318 | 20688 ft | 336 kts | 200° |
| 2026-05-07 10:43 | 19.61951 | 74.36475 | 20336 ft | 334 kts | 201° |
| 2026-05-07 10:43 | 19.59792 | 74.35592 | 19989 ft | 331 kts | 202° |
| 2026-05-07 10:44 | 19.57657 | 74.34690 | 19650 ft | 329 kts | 203° |
| 2026-05-07 10:44 | 19.55543 | 74.33781 | 19309 ft | 327 kts | 203° |
| 2026-05-07 10:44 | 19.53476 | 74.32883 | 18984 ft | 324 kts | 203° |
| 2026-05-07 10:44 | 19.51399 | 74.31975 | 18650 ft | 322 kts | 203° |
| 2026-05-07 10:45 | 19.49335 | 74.31070 | 18320 ft | 320 kts | 203° |
| 2026-05-07 10:45 | 19.47262 | 74.30161 | 17987 ft | 317 kts | 204° |
| 2026-05-07 10:45 | 19.45231 | 74.29269 | 17651 ft | 315 kts | 204° |
| 2026-05-07 10:45 | 19.43244 | 74.28397 | 17344 ft | 313 kts | 203° |
| 2026-05-07 10:46 | 19.41242 | 74.27518 | 17023 ft | 310 kts | 204° |
| 2026-05-07 10:46 | 19.39259 | 74.26647 | 16702 ft | 307 kts | 203° |
| 2026-05-07 10:46 | 19.37288 | 74.25783 | 16389 ft | 307 kts | 203° |
| 2026-05-07 10:46 | 19.35296 | 74.24909 | 16056 ft | 312 kts | 203° |
| 2026-05-07 10:47 | 19.33281 | 74.24026 | 15730 ft | 315 kts | 203° |
| 2026-05-07 10:47 | 19.31260 | 74.23140 | 15409 ft | 314 kts | 203° |
| 2026-05-07 10:47 | 19.29251 | 74.22260 | 15085 ft | 311 kts | 203° |
| 2026-05-07 10:47 | 19.27257 | 74.21386 | 14759 ft | 309 kts | 203° |
| 2026-05-07 10:48 | 19.25278 | 74.20519 | 14441 ft | 307 kts | 203° |
| 2026-05-07 10:48 | 19.23314 | 74.19659 | 14121 ft | 304 kts | 203° |
| 2026-05-07 10:48 | 19.21365 | 74.18806 | 13796 ft | 302 kts | 203° |
| 2026-05-07 10:48 | 19.19452 | 74.17914 | 13449 ft | 300 kts | 211° |
| 2026-05-07 10:49 | 19.17714 | 74.16708 | 13134 ft | 298 kts | 214° |
| 2026-05-07 10:49 | 19.15991 | 74.15509 | 12842 ft | 295 kts | 214° |
| 2026-05-07 10:49 | 19.14275 | 74.14341 | 12549 ft | 292 kts | 213° |
| 2026-05-07 10:49 | 19.12569 | 74.13193 | 12251 ft | 290 kts | 213° |
| 2026-05-07 10:50 | 19.10869 | 74.12057 | 11946 ft | 288 kts | 213° |
| 2026-05-07 10:50 | 19.09181 | 74.10935 | 11648 ft | 286 kts | 213° |
| 2026-05-07 10:50 | 19.07505 | 74.09825 | 11344 ft | 283 kts | 213° |
| 2026-05-07 10:50 | 19.05841 | 74.08724 | 11055 ft | 281 kts | 213° |
| 2026-05-07 10:51 | 19.04189 | 74.07631 | 10760 ft | 279 kts | 213° |
| 2026-05-07 10:51 | 19.02566 | 74.06506 | 10461 ft | 280 kts | 221° |
| 2026-05-07 10:51 | 19.01326 | 74.04930 | 10229 ft | 278 kts | 239° |
| 2026-05-07 10:51 | 19.00331 | 74.03194 | 10117 ft | 275 kts | 240° |
| 2026-05-07 10:52 | 18.99351 | 74.01452 | 9910 ft | 276 kts | 240° |
| 2026-05-07 10:52 | 18.98371 | 73.99710 | 9638 ft | 276 kts | 240° |
| 2026-05-07 10:52 | 18.97391 | 73.97971 | 9384 ft | 275 kts | 240° |
| 2026-05-07 10:52 | 18.96413 | 73.96234 | 9132 ft | 274 kts | 240° |
| 2026-05-07 10:53 | 18.95442 | 73.94507 | 8880 ft | 273 kts | 240° |
| 2026-05-07 10:53 | 18.94471 | 73.92785 | 8647 ft | 272 kts | 240° |
| 2026-05-07 10:53 | 18.93505 | 73.91074 | 8411 ft | 271 kts | 240° |
| 2026-05-07 10:53 | 18.92542 | 73.89368 | 8183 ft | 270 kts | 240° |
| 2026-05-07 10:54 | 18.91595 | 73.87691 | 7980 ft | 269 kts | 240° |
| 2026-05-07 10:54 | 18.90629 | 73.85979 | 7751 ft | 267 kts | 240° |
| 2026-05-07 10:54 | 18.89678 | 73.84297 | 7550 ft | 266 kts | 240° |
| 2026-05-07 10:54 | 18.88734 | 73.82624 | 7357 ft | 265 kts | 240° |
| 2026-05-07 10:55 | 18.87808 | 73.80980 | 7180 ft | 264 kts | 240° |
| 2026-05-07 10:55 | 18.86871 | 73.79319 | 6998 ft | 263 kts | 239° |
| 2026-05-07 10:55 | 18.85932 | 73.77654 | 6645 ft | 267 kts | 240° |
| 2026-05-07 10:55 | 18.84977 | 73.75958 | 6250 ft | 270 kts | 240° |
| 2026-05-07 10:56 | 18.84019 | 73.74257 | 5907 ft | 269 kts | 240° |
| 2026-05-07 10:56 | 18.83077 | 73.72591 | 5661 ft | 258 kts | 239° |
| 2026-05-07 10:56 | 18.82177 | 73.71005 | 5473 ft | 246 kts | 240° |
| 2026-05-07 10:56 | 18.81315 | 73.69489 | 5266 ft | 236 kts | 240° |
| 2026-05-07 10:57 | 18.80492 | 73.68037 | 5073 ft | 226 kts | 240° |
| 2026-05-07 10:57 | 18.79688 | 73.66625 | 4876 ft | 224 kts | 238° |
| 2026-05-07 10:57 | 18.78644 | 73.65428 | 4663 ft | 222 kts | 216° |
| 2026-05-07 10:57 | 18.77342 | 73.64601 | 4493 ft | 224 kts | 210° |
| 2026-05-07 10:58 | 18.75980 | 73.63816 | 4369 ft | 222 kts | 210° |
| 2026-05-07 10:58 | 18.74619 | 73.63032 | 4343 ft | 223 kts | 210° |
| 2026-05-07 10:58 | 18.73258 | 73.62255 | 4313 ft | 222 kts | 210° |
| 2026-05-07 10:58 | 18.71897 | 73.61475 | 4288 ft | 223 kts | 210° |
| 2026-05-07 10:59 | 18.70517 | 73.60725 | 4312 ft | 224 kts | 202° |
| 2026-05-07 10:59 | 18.69007 | 73.60467 | 4305 ft | 215 kts | 181° |
| 2026-05-07 10:59 | 18.67552 | 73.60502 | 4308 ft | 206 kts | 180° |
| 2026-05-07 10:59 | 18.66126 | 73.60550 | 4268 ft | 204 kts | 180° |
| 2026-05-07 11:00 | 18.64707 | 73.60608 | 4286 ft | 205 kts | 176° |
| 2026-05-07 11:00 | 18.63391 | 73.61138 | 4264 ft | 206 kts | 145° |
| 2026-05-07 11:00 | 18.62280 | 73.62110 | 4359 ft | 209 kts | 139° |
| 2026-05-07 11:00 | 18.61290 | 73.63234 | 4337 ft | 209 kts | 130° |
| 2026-05-07 11:01 | 18.60388 | 73.64434 | 4304 ft | 206 kts | 124° |
| 2026-05-07 11:01 | 18.59942 | 73.65817 | 4239 ft | 196 kts | 98° |
| 2026-05-07 11:01 | 18.59793 | 73.67223 | 4350 ft | 192 kts | 96° |
| 2026-05-07 11:01 | 18.59671 | 73.68618 | 4337 ft | 190 kts | 94° |
| 2026-05-07 11:02 | 18.59579 | 73.70009 | 4315 ft | 190 kts | 94° |
| 2026-05-07 11:02 | 18.59494 | 73.71389 | 4325 ft | 189 kts | 94° |
| 2026-05-07 11:02 | 18.59408 | 73.72762 | 4319 ft | 183 kts | 94° |
| 2026-05-07 11:02 | 18.59326 | 73.74081 | 4333 ft | 179 kts | 94° |
| 2026-05-07 11:03 | 18.59246 | 73.75388 | 4348 ft | 178 kts | 93° |
| 2026-05-07 11:03 | 18.59167 | 73.76688 | 4348 ft | 178 kts | 93° |
| 2026-05-07 11:03 | 18.59087 | 73.77989 | 4226 ft | 178 kts | 94° |
| 2026-05-07 11:03 | 18.59008 | 73.79287 | 4003 ft | 177 kts | 94° |
| 2026-05-07 11:04 | 18.58928 | 73.80555 | 3807 ft | 170 kts | 94° |
| 2026-05-07 11:04 | 18.58855 | 73.81775 | 3596 ft | 165 kts | 94° |
| 2026-05-07 11:04 | 18.58784 | 73.82983 | 3390 ft | 165 kts | 93° |
| 2026-05-07 11:04 | 18.58711 | 73.84185 | 3154 ft | 164 kts | 94° |
| 2026-05-07 11:05 | 18.58636 | 73.85379 | 2948 ft | 164 kts | 93° |
| 2026-05-07 11:05 | 18.58559 | 73.86579 | 2738 ft | 164 kts | 94° |
| 2026-05-07 11:05 | 18.58486 | 73.87769 | 2502 ft | 162 kts | 94° |
| 2026-05-07 11:05 | 18.58416 | 73.88940 | 2320 ft | 160 kts | 94° |
| 2026-05-07 11:06 | 18.58363 | 73.89853 | 2141 ft | 162 kts | 93° |
| 2026-05-07 11:06 | 18.58287 | 73.91039 | 1946 ft | 158 kts | 95° |
| 2026-05-07 11:06 | 18.58228 | 73.92003 | 1932 ft | 80 kts | 92° |
| 2026-05-07 11:06 | 18.58249 | 73.92286 | 1932 ft | 14 kts | 354° |
| 2026-05-07 11:07 | 18.58350 | 73.92287 | 1933 ft | 15 kts | 2° |
| 2026-05-07 11:07 | 18.58381 | 73.92246 | 1932 ft | 9 kts | 273° |
| 2026-05-07 11:07 | 18.58385 | 73.92173 | 1932 ft | 11 kts | 274° |
| 2026-05-07 11:07 | 18.58401 | 73.92086 | 1931 ft | 13 kts | 284° |
| 2026-05-07 11:08 | 18.58407 | 73.92061 | 1931 ft | 0 kts | 284° |
| 2026-05-07 11:08 | 18.58000 | 73.90838 | 1926 ft | 0 kts | 189° |